createdAt,value
2017-04-09T00:00:32.661Z,12.47
2017-04-09T00:01:13.541Z,12.47
2017-04-09T00:01:54.426Z,12.39
2017-04-09T00:02:35.309Z,12.4
2017-04-09T00:03:16.183Z,12.35
2017-04-09T00:03:57.067Z,12.32
2017-04-09T00:04:37.948Z,12.31
2017-04-09T00:05:18.838Z,12.32
2017-04-09T00:05:59.718Z,12.36
2017-04-09T00:06:40.601Z,12.39
2017-04-09T00:07:21.483Z,12.39
2017-04-09T00:08:02.376Z,12.39
2017-04-09T00:08:43.258Z,12.39
2017-04-09T00:09:24.140Z,12.4
2017-04-09T00:10:05.028Z,12.35
2017-04-09T00:10:45.910Z,12.37
2017-04-09T00:11:26.794Z,12.36
2017-04-09T00:12:07.690Z,12.37
2017-04-09T00:12:48.576Z,12.37
2017-04-09T00:13:29.457Z,12.37
2017-04-09T00:14:10.338Z,12.36
2017-04-09T00:14:51.221Z,12.37
2017-04-09T00:15:32.106Z,12.32
2017-04-09T00:16:12.982Z,12.35
2017-04-09T00:16:53.862Z,12.32
2017-04-09T00:17:34.749Z,12.31
2017-04-09T00:18:15.633Z,12.29
2017-04-09T00:18:56.516Z,12.25
2017-04-09T00:19:37.397Z,12.25
2017-04-09T00:20:18.289Z,12.29
2017-04-09T00:20:59.179Z,12.31
2017-04-09T00:21:40.056Z,12.39
2017-04-09T00:22:20.950Z,12.37
2017-04-09T00:23:01.833Z,12.4
2017-04-09T00:23:42.712Z,12.37
2017-04-09T00:24:23.601Z,12.36
2017-04-09T00:25:04.484Z,12.36
2017-04-09T00:25:45.371Z,12.37
2017-04-09T00:26:26.251Z,12.39
2017-04-09T00:27:07.134Z,12.39
2017-04-09T00:27:48.015Z,12.42
2017-04-09T00:28:28.896Z,12.5
2017-04-09T00:29:09.778Z,12.45
2017-04-09T00:29:50.665Z,12.43
2017-04-09T00:30:31.553Z,12.37
2017-04-09T00:31:12.431Z,12.35
2017-04-09T00:31:53.320Z,12.4
2017-04-09T00:32:34.211Z,12.35
2017-04-09T00:33:15.084Z,12.32
2017-04-09T00:33:55.969Z,12.42
2017-04-09T00:34:36.853Z,12.4
2017-04-09T00:35:17.735Z,12.37
2017-04-09T00:35:58.624Z,12.45
2017-04-09T00:36:39.514Z,12.5
2017-04-09T00:37:20.397Z,12.5
2017-04-09T00:38:01.276Z,12.46
2017-04-09T00:38:42.156Z,12.43
2017-04-09T00:39:23.042Z,12.47
2017-04-09T00:40:03.925Z,12.47
2017-04-09T00:40:44.811Z,12.42
2017-04-09T00:41:25.694Z,12.37
2017-04-09T00:42:06.576Z,12.47
2017-04-09T00:42:47.457Z,12.49
2017-04-09T00:43:28.332Z,12.39
2017-04-09T00:44:09.231Z,12.37
2017-04-09T00:44:50.113Z,12.37
2017-04-09T00:45:30.999Z,12.39
2017-04-09T00:46:11.881Z,12.53
2017-04-09T00:46:52.766Z,12.45
2017-04-09T00:47:33.652Z,12.37
2017-04-09T00:48:14.537Z,12.4
2017-04-09T00:48:55.426Z,12.37
2017-04-09T00:49:36.318Z,12.37
2017-04-09T00:50:17.203Z,12.49
2017-04-09T00:50:58.087Z,12.46
2017-04-09T00:51:38.967Z,12.45
2017-04-09T00:52:19.855Z,12.45
2017-04-09T00:53:00.730Z,12.43
2017-04-09T00:53:41.614Z,12.46
2017-04-09T00:54:22.497Z,12.43
2017-04-09T00:55:03.374Z,12.43
2017-04-09T00:55:44.261Z,12.47
2017-04-09T00:56:25.154Z,12.47
2017-04-09T00:57:06.037Z,12.43
2017-04-09T00:57:46.918Z,12.45
2017-04-09T00:58:27.799Z,12.43
2017-04-09T00:59:08.680Z,12.39
2017-04-09T00:59:49.567Z,12.39
2017-04-09T01:00:30.456Z,12.43
2017-04-09T01:01:11.333Z,12.45
2017-04-09T01:01:52.216Z,12.42
2017-04-09T01:02:33.100Z,12.47
2017-04-09T01:03:13.985Z,12.47
2017-04-09T01:03:54.872Z,12.37
2017-04-09T01:04:35.754Z,12.43
2017-04-09T01:05:16.635Z,12.47
2017-04-09T01:05:57.517Z,12.47
2017-04-09T01:06:38.401Z,12.39
2017-04-09T01:07:19.287Z,12.37
2017-04-09T01:08:00.172Z,12.39
2017-04-09T01:08:41.057Z,12.36
2017-04-09T01:09:21.939Z,12.36
2017-04-09T01:10:02.824Z,12.37
2017-04-09T01:10:43.715Z,12.37
2017-04-09T01:11:24.606Z,12.39
2017-04-09T01:12:05.483Z,12.4
2017-04-09T01:12:46.376Z,12.42
2017-04-09T01:13:27.278Z,12.42
2017-04-09T01:14:08.162Z,12.49
2017-04-09T01:14:49.051Z,12.45
2017-04-09T01:15:29.936Z,12.47
2017-04-09T01:16:10.819Z,12.46
2017-04-09T01:16:51.700Z,12.42
2017-04-09T01:17:32.584Z,12.45
2017-04-09T01:18:13.470Z,12.5
2017-04-09T01:18:54.352Z,12.45
2017-04-09T01:19:35.240Z,12.42
2017-04-09T01:20:16.133Z,12.43
2017-04-09T01:20:57.015Z,12.47
2017-04-09T01:21:37.903Z,12.4
2017-04-09T01:22:18.789Z,12.36
2017-04-09T01:22:59.672Z,12.37
2017-04-09T01:23:40.554Z,12.36
2017-04-09T01:24:21.440Z,12.39
2017-04-09T01:25:02.327Z,12.37
2017-04-09T01:25:43.210Z,12.45
2017-04-09T01:26:24.099Z,12.45
2017-04-09T01:27:04.978Z,12.42
2017-04-09T01:27:45.860Z,12.46
2017-04-09T01:28:26.747Z,12.37
2017-04-09T01:29:07.626Z,12.39
2017-04-09T01:29:48.506Z,12.37
2017-04-09T01:30:29.396Z,12.37
2017-04-09T01:31:10.297Z,12.39
2017-04-09T01:31:51.183Z,12.46
2017-04-09T01:32:32.069Z,12.47
2017-04-09T01:33:12.953Z,12.39
2017-04-09T01:33:53.837Z,12.37
2017-04-09T01:34:34.724Z,12.4
2017-04-09T01:35:15.618Z,12.37
2017-04-09T01:35:56.505Z,12.47
2017-04-09T01:36:37.384Z,12.39
2017-04-09T01:37:18.272Z,12.45
2017-04-09T01:37:59.156Z,12.49
2017-04-09T01:38:40.038Z,12.43
2017-04-09T01:39:20.923Z,12.37
2017-04-09T01:40:01.805Z,12.42
2017-04-09T01:40:42.714Z,12.47
2017-04-09T01:41:23.595Z,12.39
2017-04-09T01:42:04.487Z,12.32
2017-04-09T01:42:45.374Z,12.36
2017-04-09T01:43:26.248Z,12.37
2017-04-09T01:44:07.130Z,12.37
2017-04-09T01:44:48.015Z,12.36
2017-04-09T01:45:28.967Z,12.36
2017-04-09T01:46:09.808Z,12.37
2017-04-09T01:46:50.697Z,12.37
2017-04-09T01:47:31.583Z,12.37
2017-04-09T01:48:12.469Z,12.35
2017-04-09T01:48:53.354Z,12.39
2017-04-09T01:49:34.249Z,12.37
2017-04-09T01:50:15.132Z,12.42
2017-04-09T01:50:56.015Z,12.49
2017-04-09T01:51:36.898Z,12.4
2017-04-09T01:52:17.788Z,12.4
2017-04-09T01:52:58.673Z,12.4
2017-04-09T01:53:39.559Z,12.32
2017-04-09T01:54:20.441Z,12.36
2017-04-09T01:55:01.323Z,12.35
2017-04-09T01:55:42.206Z,12.32
2017-04-09T01:56:23.092Z,12.36
2017-04-09T01:57:03.974Z,12.27
2017-04-09T01:57:44.849Z,12.32
2017-04-09T01:58:25.735Z,12.37
2017-04-09T01:59:06.617Z,12.36
2017-04-09T01:59:47.506Z,12.36
2017-04-09T02:00:28.383Z,12.32
2017-04-09T02:01:09.269Z,12.29
2017-04-09T02:01:50.151Z,12.37
2017-04-09T02:02:31.038Z,12.29
2017-04-09T02:03:11.925Z,12.36
2017-04-09T02:03:52.810Z,12.31
2017-04-09T02:04:33.674Z,12.37
2017-04-09T02:05:14.565Z,12.37
2017-04-09T02:05:55.449Z,12.25
2017-04-09T02:06:36.333Z,12.28
2017-04-09T02:07:17.217Z,12.31
2017-04-09T02:07:58.096Z,12.32
2017-04-09T02:08:38.985Z,12.35
2017-04-09T02:09:19.869Z,12.32
2017-04-09T02:10:00.751Z,12.37
2017-04-09T02:11:34.069Z,12.35
2017-04-09T02:12:14.952Z,12.29
2017-04-09T02:12:55.835Z,12.28
2017-04-09T02:13:36.721Z,12.32
2017-04-09T02:14:17.609Z,12.31
2017-04-09T02:14:58.500Z,12.29
2017-04-09T02:15:39.379Z,12.29
2017-04-09T02:16:20.270Z,12.35
2017-04-09T02:17:01.155Z,12.39
2017-04-09T02:17:42.043Z,12.32
2017-04-09T02:18:22.915Z,12.29
2017-04-09T02:19:03.805Z,12.36
2017-04-09T02:19:44.698Z,12.31
2017-04-09T02:20:25.574Z,12.35
2017-04-09T02:21:06.458Z,12.36
2017-04-09T02:21:47.344Z,12.29
2017-04-09T02:22:28.229Z,12.27
2017-04-09T02:23:09.112Z,12.35
2017-04-09T02:23:49.994Z,12.32
2017-04-09T02:24:30.880Z,12.25
2017-04-09T02:25:11.767Z,12.25
2017-04-09T02:25:52.650Z,12.36
2017-04-09T02:26:33.537Z,12.37
2017-04-09T02:27:14.427Z,12.29
2017-04-09T02:27:55.317Z,12.35
2017-04-09T02:28:36.223Z,12.29
2017-04-09T02:29:17.104Z,12.36
2017-04-09T02:29:57.986Z,12.31
2017-04-09T02:30:38.869Z,12.28
2017-04-09T02:31:19.752Z,12.32
2017-04-09T02:32:00.639Z,12.31
2017-04-09T02:32:41.522Z,12.36
2017-04-09T02:33:22.406Z,12.31
2017-04-09T02:34:03.288Z,12.36
2017-04-09T02:34:44.174Z,12.29
2017-04-09T02:35:25.056Z,12.28
2017-04-09T02:36:05.941Z,12.36
2017-04-09T02:36:46.827Z,12.29
2017-04-09T02:37:27.718Z,12.39
2017-04-09T02:38:08.611Z,12.27
2017-04-09T02:38:49.497Z,12.35
2017-04-09T02:39:30.388Z,12.35
2017-04-09T02:40:11.267Z,12.27
2017-04-09T02:40:52.143Z,12.29
2017-04-09T02:41:33.029Z,12.32
2017-04-09T02:42:13.916Z,12.32
2017-04-09T02:42:54.800Z,12.32
2017-04-09T02:43:35.686Z,12.39
2017-04-09T02:44:16.568Z,12.28
2017-04-09T02:44:57.454Z,12.29
2017-04-09T02:45:38.332Z,12.35
2017-04-09T02:46:19.218Z,12.28
2017-04-09T02:47:00.097Z,12.35
2017-04-09T02:47:40.986Z,12.37
2017-04-09T02:48:21.869Z,12.29
2017-04-09T02:49:02.747Z,12.31
2017-04-09T02:49:43.630Z,12.36
2017-04-09T02:50:24.519Z,12.22
2017-04-09T02:51:05.400Z,12.29
2017-04-09T02:51:46.281Z,12.27
2017-04-09T02:52:27.162Z,12.25
2017-04-09T02:53:08.053Z,12.31
2017-04-09T02:53:48.934Z,12.24
2017-04-09T02:54:29.814Z,12.27
2017-04-09T02:55:10.703Z,12.27
2017-04-09T02:55:51.586Z,12.32
2017-04-09T02:56:32.470Z,12.22
2017-04-09T02:57:13.355Z,12.2
2017-04-09T02:57:54.242Z,12.32
2017-04-09T02:58:35.139Z,12.24
2017-04-09T02:59:16.021Z,12.24
2017-04-09T02:59:56.907Z,12.22
2017-04-09T03:00:37.790Z,12.21
2017-04-09T03:01:18.676Z,12.25
2017-04-09T03:01:59.560Z,12.22
2017-04-09T03:02:40.444Z,12.13
2017-04-09T03:03:21.330Z,12.1
2017-04-09T03:04:02.208Z,12.13
2017-04-09T03:04:43.110Z,12.21
2017-04-09T03:05:23.995Z,12.18
2017-04-09T03:06:04.879Z,12.18
2017-04-09T03:06:45.756Z,12.21
2017-04-09T03:07:26.644Z,12.17
2017-04-09T03:08:07.538Z,12.17
2017-04-09T03:08:48.418Z,12.15
2017-04-09T03:09:29.303Z,12.09
2017-04-09T03:10:10.216Z,12.15
2017-04-09T03:10:51.103Z,12.2
2017-04-09T03:11:31.985Z,12.15
2017-04-09T03:12:12.874Z,12.17
2017-04-09T03:12:53.762Z,12.17
2017-04-09T03:13:34.645Z,12.21
2017-04-09T03:14:15.559Z,12.22
2017-04-09T03:14:56.411Z,12.25
2017-04-09T03:15:37.313Z,12.25
2017-04-09T03:16:18.205Z,12.2
2017-04-09T03:16:59.093Z,12.25
2017-04-09T03:17:39.975Z,12.22
2017-04-09T03:18:20.862Z,12.22
2017-04-09T03:19:01.747Z,12.24
2017-04-09T03:19:42.630Z,12.25
2017-04-09T03:20:23.511Z,12.27
2017-04-09T03:21:04.397Z,12.22
2017-04-09T03:21:45.282Z,12.18
2017-04-09T03:22:26.166Z,12.17
2017-04-09T03:23:07.049Z,12.07
2017-04-09T03:23:47.936Z,12.2
2017-04-09T03:24:28.816Z,12.2
2017-04-09T03:25:09.700Z,12.13
2017-04-09T03:25:50.584Z,12.2
2017-04-09T03:26:31.471Z,12.18
2017-04-09T03:27:12.362Z,12.18
2017-04-09T03:27:53.246Z,12.2
2017-04-09T03:28:34.130Z,12.12
2017-04-09T03:29:15.022Z,12.18
2017-04-09T03:29:55.906Z,12.13
2017-04-09T03:30:36.784Z,12.09
2017-04-09T03:31:17.673Z,12.12
2017-04-09T03:31:58.558Z,12.09
2017-04-09T03:32:39.439Z,12.15
2017-04-09T03:33:20.322Z,12.22
2017-04-09T03:34:01.201Z,12.18
2017-04-09T03:34:42.082Z,12.03
2017-04-09T03:35:22.964Z,11.94
2017-04-09T03:36:03.850Z,12
2017-04-09T03:36:44.734Z,11.99
2017-04-09T03:37:25.624Z,11.87
2017-04-09T03:38:06.506Z,12.03
2017-04-09T03:38:47.393Z,12
2017-04-09T03:39:28.277Z,12.04
2017-04-09T03:40:09.162Z,12.02
2017-04-09T03:40:50.046Z,11.95
2017-04-09T03:41:30.927Z,11.95
2017-04-09T03:42:11.811Z,12.07
2017-04-09T03:42:52.695Z,12.02
2017-04-09T03:43:33.577Z,12.09
2017-04-09T03:44:14.460Z,12.15
2017-04-09T03:44:55.342Z,12.1
2017-04-09T03:45:36.222Z,12.12
2017-04-09T03:46:17.108Z,12.17
2017-04-09T03:46:57.989Z,12.09
2017-04-09T03:47:38.875Z,12.21
2017-04-09T03:48:19.757Z,12.12
2017-04-09T03:49:00.639Z,12.12
2017-04-09T03:49:41.519Z,12.12
2017-04-09T03:50:22.402Z,12.04
2017-04-09T03:51:03.282Z,12.06
2017-04-09T03:51:44.166Z,12.09
2017-04-09T03:52:25.053Z,12.06
2017-04-09T03:53:05.930Z,12.13
2017-04-09T03:53:46.815Z,12.02
2017-04-09T03:54:27.698Z,12.1
2017-04-09T03:55:08.583Z,12.06
2017-04-09T03:55:49.491Z,11.99
2017-04-09T03:56:30.373Z,12.1
2017-04-09T03:57:11.258Z,12.1
2017-04-09T03:57:52.141Z,12
2017-04-09T03:58:33.025Z,12.09
2017-04-09T03:59:13.910Z,12.15
2017-04-09T03:59:54.794Z,12.02
2017-04-09T04:00:35.673Z,12.03
2017-04-09T04:01:16.558Z,12.12
2017-04-09T04:01:57.440Z,12
2017-04-09T04:02:38.326Z,12.09
2017-04-09T04:03:19.210Z,12.07
2017-04-09T04:04:00.093Z,12.07
2017-04-09T04:04:40.982Z,12.12
2017-04-09T04:05:21.865Z,12.07
2017-04-09T04:06:02.747Z,12.04
2017-04-09T04:06:43.633Z,11.94
2017-04-09T04:07:24.517Z,12.03
2017-04-09T04:08:05.401Z,12.03
2017-04-09T04:08:46.279Z,11.99
2017-04-09T04:09:27.167Z,12.07
2017-04-09T04:10:08.050Z,12.06
2017-04-09T04:10:48.935Z,11.95
2017-04-09T04:11:29.818Z,12.06
2017-04-09T04:12:10.698Z,12.07
2017-04-09T04:12:51.582Z,11.91
2017-04-09T04:13:32.458Z,12.1
2017-04-09T04:14:13.340Z,12.04
2017-04-09T04:14:54.232Z,12
2017-04-09T04:15:35.140Z,11.97
2017-04-09T04:16:15.995Z,12
2017-04-09T04:16:56.870Z,12.03
2017-04-09T04:17:37.757Z,12.04
2017-04-09T04:18:18.640Z,12.07
2017-04-09T04:18:59.525Z,12.03
2017-04-09T04:19:40.405Z,12.06
2017-04-09T04:20:21.286Z,12.13
2017-04-09T04:21:02.168Z,11.97
2017-04-09T04:21:43.058Z,12.04
2017-04-09T04:22:23.941Z,11.97
2017-04-09T04:23:04.833Z,12.06
2017-04-09T04:23:45.715Z,12
2017-04-09T04:24:29.908Z,12.09
2017-04-09T04:25:10.797Z,11.95
2017-04-09T04:25:51.681Z,11.95
2017-04-09T04:26:32.559Z,12.02
2017-04-09T04:27:13.442Z,12.1
2017-04-09T04:27:54.324Z,11.99
2017-04-09T04:28:35.203Z,12.04
2017-04-09T04:29:16.087Z,12.07
2017-04-09T04:29:56.971Z,11.95
2017-04-09T04:30:37.852Z,11.91
2017-04-09T04:31:18.734Z,11.99
2017-04-09T04:31:59.621Z,12.04
2017-04-09T04:32:40.502Z,11.97
2017-04-09T04:33:21.387Z,12.02
2017-04-09T04:34:02.266Z,12.02
2017-04-09T04:34:43.149Z,12
2017-04-09T04:35:24.029Z,12.04
2017-04-09T04:36:04.927Z,12.09
2017-04-09T04:36:45.812Z,12.03
2017-04-09T04:37:26.692Z,11.99
2017-04-09T04:38:07.584Z,12.06
2017-04-09T04:38:48.468Z,12.06
2017-04-09T04:39:29.354Z,11.99
2017-04-09T04:40:10.235Z,12.04
2017-04-09T04:40:51.118Z,12.02
2017-04-09T04:41:32.003Z,11.94
2017-04-09T04:42:12.887Z,12.12
2017-04-09T04:42:53.765Z,11.99
2017-04-09T04:43:34.663Z,12.09
2017-04-09T04:44:15.544Z,12.12
2017-04-09T04:44:56.428Z,12.02
2017-04-09T04:45:37.317Z,12.06
2017-04-09T04:46:18.208Z,12
2017-04-09T04:46:59.089Z,12
2017-04-09T04:47:39.973Z,12.03
2017-04-09T04:48:20.857Z,12.12
2017-04-09T04:49:01.739Z,12.07
2017-04-09T04:49:42.621Z,12.03
2017-04-09T04:50:23.556Z,12.02
2017-04-09T04:51:04.466Z,12.09
2017-04-09T04:51:45.329Z,12.02
2017-04-09T04:52:26.212Z,12.02
2017-04-09T04:53:07.112Z,12.02
2017-04-09T04:53:47.994Z,12.03
2017-04-09T04:54:28.876Z,12.04
2017-04-09T04:55:09.762Z,12.03
2017-04-09T04:55:50.641Z,11.95
2017-04-09T04:56:31.523Z,12.03
2017-04-09T04:57:12.406Z,12.03
2017-04-09T04:57:53.386Z,12.03
2017-04-09T04:58:34.314Z,12.07
2017-04-09T04:59:15.198Z,11.95
2017-04-09T04:59:56.085Z,12.04
2017-04-09T05:00:36.971Z,12.02
2017-04-09T05:01:17.850Z,12.02
2017-04-09T05:01:58.731Z,11.83
2017-04-09T05:02:39.615Z,11.88
2017-04-09T05:03:20.501Z,11.99
2017-04-09T05:04:01.394Z,11.91
2017-04-09T05:04:42.272Z,12.1
2017-04-09T05:05:23.156Z,12.07
2017-04-09T05:06:04.031Z,12.06
2017-04-09T05:06:44.912Z,12.04
2017-04-09T05:07:25.805Z,11.95
2017-04-09T05:08:06.691Z,12
2017-04-09T05:08:47.570Z,11.99
2017-04-09T05:09:28.452Z,12.03
2017-04-09T05:10:09.332Z,12.03
2017-04-09T05:10:50.212Z,12
2017-04-09T05:11:31.098Z,12.06
2017-04-09T05:12:11.974Z,11.97
2017-04-09T05:12:52.865Z,12.06
2017-04-09T05:13:33.757Z,12.04
2017-04-09T05:14:14.641Z,11.94
2017-04-09T05:14:55.528Z,12.02
2017-04-09T05:15:36.418Z,12.02
2017-04-09T05:16:17.300Z,11.88
2017-04-09T05:16:58.186Z,11.87
2017-04-09T05:17:39.074Z,11.88
2017-04-09T05:18:19.958Z,11.99
2017-04-09T05:19:00.833Z,12.04
2017-04-09T05:19:41.709Z,11.99
2017-04-09T05:20:22.598Z,12
2017-04-09T05:21:03.483Z,12.02
2017-04-09T05:21:44.368Z,11.94
2017-04-09T05:22:25.255Z,12.09
2017-04-09T05:23:06.141Z,12.04
2017-04-09T05:23:47.032Z,12.06
2017-04-09T05:24:27.917Z,12
2017-04-09T05:25:08.795Z,12.09
2017-04-09T05:25:49.681Z,12.04
2017-04-09T05:26:30.565Z,11.95
2017-04-09T05:27:11.448Z,12
2017-04-09T05:27:52.332Z,12.06
2017-04-09T05:28:33.215Z,11.97
2017-04-09T05:29:14.122Z,11.97
2017-04-09T05:29:55.018Z,12.07
2017-04-09T05:30:35.907Z,12.06
2017-04-09T05:31:16.793Z,12
2017-04-09T05:31:57.675Z,12.04
2017-04-09T05:32:38.562Z,12
2017-04-09T05:33:19.443Z,12.1
2017-04-09T05:34:00.327Z,11.95
2017-04-09T05:34:41.209Z,12.03
2017-04-09T05:35:22.092Z,12.04
2017-04-09T05:36:03.006Z,12.06
2017-04-09T05:36:43.861Z,12.1
2017-04-09T05:37:24.744Z,12.02
2017-04-09T05:38:05.628Z,12.04
2017-04-09T05:38:46.511Z,12
2017-04-09T05:39:27.394Z,12.1
2017-04-09T05:40:08.276Z,12.06
2017-04-09T05:40:49.166Z,12.1
2017-04-09T05:41:30.051Z,12.06
2017-04-09T05:42:10.935Z,12.06
2017-04-09T05:42:51.817Z,12.02
2017-04-09T05:43:32.699Z,12.04
2017-04-09T05:44:13.585Z,12.09
2017-04-09T05:44:54.471Z,12.09
2017-04-09T05:45:35.355Z,12.06
2017-04-09T05:46:16.233Z,12.06
2017-04-09T05:46:57.117Z,12.22
2017-04-09T05:47:37.998Z,12.06
2017-04-09T05:48:18.882Z,12.13
2017-04-09T05:48:59.760Z,12.21
2017-04-09T05:49:40.646Z,12.17
2017-04-09T05:50:21.526Z,12.13
2017-04-09T05:51:02.411Z,12.2
2017-04-09T05:51:43.301Z,12.04
2017-04-09T05:52:24.179Z,12.13
2017-04-09T05:53:05.063Z,12.12
2017-04-09T05:53:45.944Z,12.17
2017-04-09T05:54:26.825Z,12.22
2017-04-09T05:55:07.713Z,12.24
2017-04-09T05:55:48.592Z,12.2
2017-04-09T05:56:29.473Z,12.17
2017-04-09T05:57:10.364Z,12.17
2017-04-09T05:57:51.250Z,12.18
2017-04-09T05:58:32.134Z,12.15
2017-04-09T05:59:13.012Z,12.15
2017-04-09T05:59:53.894Z,12.27
2017-04-09T06:00:34.773Z,12.24
2017-04-09T06:01:15.660Z,12.24
2017-04-09T06:01:56.532Z,12.22
2017-04-09T06:02:37.415Z,12.31
2017-04-09T06:03:18.301Z,12.21
2017-04-09T06:03:59.183Z,12.32
2017-04-09T06:04:40.066Z,12.32
2017-04-09T06:05:20.949Z,12.24
2017-04-09T06:06:01.835Z,12.31
2017-04-09T06:06:42.719Z,12.28
2017-04-09T06:07:23.601Z,12.28
2017-04-09T06:08:04.494Z,12.31
2017-04-09T06:08:45.380Z,12.31
2017-04-09T06:09:26.260Z,12.29
2017-04-09T06:10:07.142Z,12.29
2017-04-09T06:10:48.026Z,12.31
2017-04-09T06:11:28.918Z,12.31
2017-04-09T06:12:09.805Z,12.29
2017-04-09T06:12:50.689Z,12.36
2017-04-09T06:13:31.578Z,12.39
2017-04-09T06:14:12.476Z,12.35
2017-04-09T06:14:53.359Z,12.28
2017-04-09T06:15:34.246Z,12.35
2017-04-09T06:16:15.129Z,12.29
2017-04-09T06:16:56.012Z,12.42
2017-04-09T06:17:36.901Z,12.35
2017-04-09T06:18:17.788Z,12.39
2017-04-09T06:18:58.671Z,12.36
2017-04-09T06:19:39.557Z,12.43
2017-04-09T06:20:20.477Z,12.35
2017-04-09T06:21:01.359Z,12.32
2017-04-09T06:21:42.242Z,12.37
2017-04-09T06:22:23.126Z,12.45
2017-04-09T06:23:04.009Z,12.4
2017-04-09T06:23:44.894Z,12.42
2017-04-09T06:24:25.775Z,12.37
2017-04-09T06:25:06.661Z,12.37
2017-04-09T06:25:47.561Z,12.32
2017-04-09T06:26:28.447Z,12.45
2017-04-09T06:27:09.326Z,12.42
2017-04-09T06:27:50.223Z,12.4
2017-04-09T06:28:31.109Z,12.45
2017-04-09T06:29:11.992Z,12.5
2017-04-09T06:29:52.881Z,12.49
2017-04-09T06:30:33.766Z,12.47
2017-04-09T06:31:14.655Z,12.42
2017-04-09T06:31:55.545Z,12.53
2017-04-09T06:32:36.429Z,12.53
2017-04-09T06:33:17.311Z,12.49
2017-04-09T06:33:58.191Z,12.55
2017-04-09T06:34:39.077Z,12.62
2017-04-09T06:35:19.956Z,12.57
2017-04-09T06:36:00.839Z,12.62
2017-04-09T06:36:41.720Z,12.7
2017-04-09T06:37:22.601Z,12.62
2017-04-09T06:38:03.490Z,12.75
2017-04-09T06:38:44.395Z,12.76
2017-04-09T06:39:25.282Z,12.86
2017-04-09T06:40:06.162Z,12.97
2017-04-09T06:40:47.048Z,13.05
2017-04-09T06:41:27.931Z,13.09
2017-04-09T06:42:08.878Z,13.13
2017-04-09T06:42:49.760Z,13.12
2017-04-09T06:43:30.648Z,13.15
2017-04-09T06:44:11.527Z,13.11
2017-04-09T06:44:52.406Z,13.18
2017-04-09T06:45:33.280Z,13.13
2017-04-09T06:46:14.180Z,13.23
2017-04-09T06:46:55.067Z,13.13
2017-04-09T06:47:35.955Z,13.04
2017-04-09T06:48:16.847Z,13.12
2017-04-09T06:48:57.731Z,13.04
2017-04-09T06:49:38.611Z,13.11
2017-04-09T06:50:19.491Z,13.05
2017-04-09T06:51:00.372Z,13.01
2017-04-09T06:51:41.258Z,13.2
2017-04-09T06:52:22.143Z,13.2
2017-04-09T06:53:03.031Z,13.19
2017-04-09T06:53:43.915Z,13.13
2017-04-09T06:54:24.802Z,13.15
2017-04-09T06:55:05.721Z,13.23
2017-04-09T06:55:46.579Z,13.25
2017-04-09T06:56:27.464Z,13.3
2017-04-09T06:57:08.346Z,13.39
2017-04-09T06:57:49.229Z,13.35
2017-04-09T06:58:30.117Z,13.35
2017-04-09T06:59:11.000Z,13.22
2017-04-09T06:59:51.876Z,13.27
2017-04-09T07:00:32.750Z,13.37
2017-04-09T07:01:13.637Z,13.38
2017-04-09T07:01:54.526Z,13.38
2017-04-09T07:02:35.415Z,13.44
2017-04-09T07:03:16.296Z,13.41
2017-04-09T07:03:57.182Z,13.44
2017-04-09T07:04:38.066Z,13.56
2017-04-09T07:05:18.952Z,13.56
2017-04-09T07:05:59.830Z,13.56
2017-04-09T07:06:40.717Z,13.68
2017-04-09T07:07:21.606Z,13.5
2017-04-09T07:08:02.491Z,13.53
2017-04-09T07:08:43.378Z,13.67
2017-04-09T07:09:24.266Z,13.54
2017-04-09T07:10:05.152Z,13.63
2017-04-09T07:10:46.039Z,13.71
2017-04-09T07:11:26.938Z,13.71
2017-04-09T07:12:07.839Z,13.71
2017-04-09T07:12:48.723Z,13.47
2017-04-09T07:13:29.611Z,13.47
2017-04-09T07:14:10.497Z,13.65
2017-04-09T07:14:51.384Z,13.65
2017-04-09T07:15:32.275Z,13.75
2017-04-09T07:16:13.160Z,13.79
2017-04-09T07:16:54.043Z,13.75
2017-04-09T07:17:34.928Z,13.78
2017-04-09T07:18:15.818Z,13.81
2017-04-09T07:18:56.706Z,13.81
2017-04-09T07:19:37.591Z,13.86
2017-04-09T07:20:18.489Z,13.81
2017-04-09T07:20:59.376Z,13.81
2017-04-09T07:21:40.259Z,13.93
2017-04-09T07:22:21.144Z,13.96
2017-04-09T07:23:02.029Z,14.07
2017-04-09T07:23:42.915Z,14.1
2017-04-09T07:24:23.802Z,14.03
2017-04-09T07:25:04.689Z,14.08
2017-04-09T07:25:45.579Z,14.15
2017-04-09T07:26:26.466Z,14.04
2017-04-09T07:27:07.359Z,14.17
2017-04-09T07:27:48.248Z,14.18
2017-04-09T07:28:29.136Z,14.25
2017-04-09T07:29:10.023Z,14.26
2017-04-09T07:29:50.912Z,14.29
2017-04-09T07:30:31.801Z,14.3
2017-04-09T07:31:12.683Z,14.32
2017-04-09T07:31:53.571Z,14.43
2017-04-09T07:32:34.453Z,14.4
2017-04-09T07:33:15.356Z,14.51
2017-04-09T07:33:56.276Z,14.45
2017-04-09T07:34:37.165Z,14.47
2017-04-09T07:35:18.054Z,14.48
2017-04-09T07:35:58.963Z,14.59
2017-04-09T07:36:39.868Z,14.59
2017-04-09T07:37:20.766Z,14.55
2017-04-09T07:38:01.650Z,14.59
2017-04-09T07:38:42.531Z,14.58
2017-04-09T07:39:23.440Z,14.47
2017-04-09T07:40:04.355Z,14.47
2017-04-09T07:40:45.250Z,14.51
2017-04-09T07:41:26.165Z,14.59
2017-04-09T07:42:07.074Z,14.51
2017-04-09T07:42:47.961Z,14.47
2017-04-09T07:43:28.880Z,14.58
2017-04-09T07:44:09.761Z,14.55
2017-04-09T07:44:50.654Z,14.6
2017-04-09T07:45:31.547Z,14.66
2017-04-09T07:46:12.440Z,14.54
2017-04-09T07:46:53.354Z,14.69
2017-04-09T07:47:34.244Z,14.65
2017-04-09T07:48:15.129Z,14.79
2017-04-09T07:48:56.022Z,14.81
2017-04-09T07:49:36.907Z,14.81
2017-04-09T07:50:17.811Z,14.84
2017-04-09T07:50:58.710Z,14.91
2017-04-09T07:51:39.595Z,15
2017-04-09T07:52:20.494Z,14.94
2017-04-09T07:53:01.391Z,15.03
2017-04-09T07:53:42.266Z,15.17
2017-04-09T07:54:23.162Z,15.14
2017-04-09T07:55:04.049Z,15.27
2017-04-09T07:55:44.970Z,15.47
2017-04-09T07:56:25.853Z,15.43
2017-04-09T07:57:06.738Z,15.47
2017-04-09T07:57:47.629Z,15.47
2017-04-09T07:58:28.531Z,15.55
2017-04-09T07:59:09.429Z,15.8
2017-04-09T07:59:50.320Z,15.91
2017-04-09T08:00:31.217Z,16.08
2017-04-09T08:01:12.116Z,16.24
2017-04-09T08:01:53.022Z,16.23
2017-04-09T08:02:33.923Z,16.42
2017-04-09T08:03:14.823Z,16.51
2017-04-09T08:03:55.711Z,16.58
2017-04-09T08:04:36.606Z,16.38
2017-04-09T08:05:17.503Z,16.33
2017-04-09T08:05:58.419Z,16.29
2017-04-09T08:06:39.305Z,16.43
2017-04-09T08:07:20.209Z,16.49
2017-04-09T08:08:01.117Z,16.46
2017-04-09T08:08:42.013Z,16.38
2017-04-09T08:09:22.900Z,16.28
2017-04-09T08:10:03.810Z,16.23
2017-04-09T08:10:44.712Z,16.46
2017-04-09T08:11:25.616Z,16.61
2017-04-09T08:12:06.524Z,16.78
2017-04-09T08:12:47.428Z,16.91
2017-04-09T08:13:28.309Z,16.91
2017-04-09T08:14:09.985Z,16.87
2017-04-09T08:14:50.867Z,16.9
2017-04-09T08:15:31.769Z,16.89
2017-04-09T08:16:12.661Z,16.87
2017-04-09T08:16:53.559Z,17.09
2017-04-09T08:17:34.454Z,17.87
2017-04-09T08:18:15.359Z,18.47
2017-04-09T08:18:56.256Z,18.2
2017-04-09T08:19:37.157Z,18.04
2017-04-09T08:20:18.052Z,17.74
2017-04-09T08:20:58.952Z,17.65
2017-04-09T08:21:39.853Z,17.65
2017-04-09T08:22:20.751Z,17.54
2017-04-09T08:23:01.651Z,17.64
2017-04-09T08:23:43.223Z,18.07
2017-04-09T08:24:24.120Z,18.22
2017-04-09T08:25:05.019Z,18.29
2017-04-09T08:25:45.915Z,18.89
2017-04-09T08:26:26.818Z,18.89
2017-04-09T08:27:07.714Z,18.4
2017-04-09T08:27:48.619Z,18.66
2017-04-09T08:28:29.515Z,19.59
2017-04-09T08:29:10.431Z,20.24
2017-04-09T08:29:51.331Z,19.73
2017-04-09T08:30:32.224Z,19.26
2017-04-09T08:31:13.110Z,18.5
2017-04-09T08:31:54.002Z,20.22
2017-04-09T08:32:34.884Z,20.67
2017-04-09T08:33:15.782Z,20.4
2017-04-09T08:33:56.678Z,19.92
2017-04-09T08:34:37.561Z,19.45
2017-04-09T08:35:18.466Z,18.75
2017-04-09T08:35:59.389Z,18.37
2017-04-09T08:36:40.300Z,18.35
2017-04-09T08:37:21.192Z,18.44
2017-04-09T08:38:02.081Z,18.44
2017-04-09T08:38:42.970Z,18.44
2017-04-09T08:39:23.845Z,18.38
2017-04-09T08:40:04.787Z,18.52
2017-04-09T08:40:45.688Z,18.5
2017-04-09T08:41:26.563Z,18.5
2017-04-09T08:42:07.483Z,18.41
2017-04-09T08:42:48.373Z,18.38
2017-04-09T08:43:29.288Z,18.33
2017-04-09T08:44:10.175Z,18.33
2017-04-09T08:44:51.064Z,18.33
2017-04-09T08:45:31.963Z,18.44
2017-04-09T08:46:12.868Z,18.59
2017-04-09T08:46:53.758Z,18.62
2017-04-09T08:47:34.667Z,18.88
2017-04-09T08:48:15.583Z,18.8
2017-04-09T08:48:56.474Z,18.9
2017-04-09T08:49:37.379Z,18.93
2017-04-09T08:50:18.273Z,18.99